Kezdőlap
METAR-TAF:

METAR-TAF

Repülőterek :

Jijel, Algéria

földrajzi szélesség: 36-53N, földrajzi hosszúság: 005-49E, magasság: 2 m

Jelenlegi meteorológiai megfigyelések

A jelentés 32 perccel ezelõtt készült, 00:00 UTC
Északnyugati szél 5 kt, nyugat-északnyugati és északi között változik
Hőmérséklet 26°C
Páratartalom 61%
Légköri nyomás 1010 hPa
Látótávolság 10 km, vagy több
felhőtlen 1500 m magasságban, és nincs gomolyfelhõ

METAR: DAAV 180000Z 32005KT 290V350 CAVOK 26/18 Q1010

Idő: 01:32 (00:32 UTC)

Előrejelzés

A jelentés 1 órával és 32 perccel ezelõtt készült, 23:00 UTC
Az előrejelzés 18-én 00 óra UTC és 18-én 24 óra UTC között érvényes
Észak-északnyugati szél 8 kt
Látótávolság: 8000 m
Kevés felhő 3300 lábon
Szórványos felhőzet 9000 lábon
Valószínűség 30%
18-én 12 óra UTC és 18-én 21 óra UTC között
Kevés felhő 3000 lábon, Cumulonimbus.

TAF: DAAV 172300Z 1800/1824 33008KT 8000 FEW033 SCT090 PROB30 1812/1821 FEW030CB

Meteorológiai megfigyelések és előrejelzések több, mint 4000 repülőtéren (METAR és TAF jelentéseket).

A térképen piros és sárga pontok jelzik az elérhető meteorológiai állomásokat.

Mozgassa az egeret a pont fölött, hogy megjelenjen az állomás neve.

Azután kattintson az időjárási megfigyelések és előrejelzések megtekintéséhez.

A térkép megváltoztatása: kattintson a fekete keresztel jelölt zöld gombra ráközelítéshez, a vonallal jelölt zöld gombra távolításhoz, vagy a zöld nyilakra a szomszédos térképek eléréséhez.


METAR-TAF: